createdAt,value
2023-05-23T00:01:24.976Z,6.40
2023-05-23T00:03:54.022Z,7.00
2023-05-23T00:06:23.960Z,7.30
2023-05-23T00:08:51.622Z,5.80
2023-05-23T00:11:20.298Z,6.27
2023-05-23T00:13:46.947Z,5.60
2023-05-23T00:16:13.992Z,6.43
2023-05-23T00:18:43.248Z,6.20
2023-05-23T00:21:10.264Z,6.00
2023-05-23T00:23:38.559Z,6.50
2023-05-23T00:26:05.138Z,6.07
2023-05-23T00:28:31.828Z,5.43
2023-05-23T00:30:58.422Z,5.83
2023-05-23T00:33:26.553Z,6.53
2023-05-23T00:35:53.235Z,6.80
2023-05-23T00:38:19.989Z,6.23
2023-05-23T00:40:46.609Z,5.97
2023-05-23T00:43:13.462Z,6.13
2023-05-23T00:45:40.511Z,6.77
2023-05-23T00:48:07.618Z,6.00
2023-05-23T00:50:34.391Z,6.37
2023-05-23T00:53:01.350Z,5.60
2023-05-23T00:55:28.647Z,6.07
2023-05-23T00:57:58.256Z,6.67
2023-05-23T01:00:25.366Z,6.70
2023-05-23T01:02:52.729Z,6.40
2023-05-23T01:05:20.190Z,5.57
2023-05-23T01:07:47.442Z,6.20
2023-05-23T01:10:14.484Z,6.40
2023-05-23T01:12:59.802Z,5.87
2023-05-23T01:15:32.237Z,6.13
2023-05-23T01:18:08.545Z,6.53
2023-05-23T01:20:41.631Z,6.00
2023-05-23T01:23:09.190Z,6.13
2023-05-23T01:25:59.497Z,6.10
2023-05-23T01:28:31.403Z,5.63
2023-05-23T01:30:58.437Z,6.33
2023-05-23T01:33:25.508Z,6.40
2023-05-23T01:35:53.254Z,6.30
2023-05-23T01:38:22.994Z,6.50
2023-05-23T01:40:49.804Z,6.07
2023-05-23T02:15:51.441Z,6.33
2023-05-23T02:18:19.258Z,7.17
2023-05-23T02:20:48.757Z,6.73
2023-05-23T02:23:15.642Z,6.37
2023-05-23T02:25:42.521Z,6.83
2023-05-23T02:28:09.914Z,6.57
2023-05-23T02:30:36.568Z,6.63
2023-05-23T02:33:08.223Z,6.23
2023-05-23T02:35:34.922Z,6.13
2023-05-23T02:38:02.559Z,6.43
2023-05-23T02:40:29.460Z,6.53
2023-05-23T02:43:04.201Z,7.33
2023-05-23T02:45:31.731Z,7.40
2023-05-23T02:47:58.989Z,7.40
2023-05-23T02:50:27.377Z,7.73
2023-05-23T02:52:53.993Z,7.57
2023-05-23T02:55:21.765Z,8.10
2023-05-23T02:57:51.340Z,7.33
2023-05-23T03:00:18.569Z,7.27
2023-05-23T03:02:49.988Z,6.50
2023-05-23T03:05:17.087Z,6.23
2023-05-23T03:07:44.261Z,6.63
2023-05-23T03:10:11.152Z,6.27
2023-05-23T03:12:38.306Z,6.23
2023-05-23T03:15:05.260Z,5.93
2023-05-23T03:17:32.197Z,6.13
2023-05-23T03:19:58.863Z,6.80
2023-05-23T03:22:25.614Z,6.33
2023-05-23T03:24:52.370Z,6.17
2023-05-23T03:27:21.363Z,6.10
2023-05-23T03:29:48.870Z,6.63
2023-05-23T03:32:15.709Z,6.50
2023-05-23T03:34:42.707Z,6.80
2023-05-23T03:37:11.360Z,6.33
2023-05-23T03:39:39.682Z,6.10
2023-05-23T03:42:08.548Z,7.10
2023-05-23T03:44:35.333Z,6.53
2023-05-23T03:47:03.673Z,6.97
2023-05-23T03:49:30.420Z,6.80
2023-05-23T03:51:56.998Z,8.33
2023-05-23T03:54:24.614Z,6.90
2023-05-23T03:56:52.103Z,6.53
2023-05-23T03:59:19.432Z,7.70
2023-05-23T04:01:46.507Z,7.20
2023-05-23T04:04:14.431Z,6.43
2023-05-23T04:06:41.727Z,6.80
2023-05-23T04:09:09.174Z,5.90
2023-05-23T04:11:41.157Z,5.93
2023-05-23T04:14:09.122Z,6.03
2023-05-23T04:16:37.111Z,6.23
2023-05-23T04:19:07.288Z,5.90
2023-05-23T04:21:35.116Z,6.63
2023-05-23T04:24:09.744Z,6.00
2023-05-23T04:26:36.704Z,6.00
2023-05-23T04:29:04.524Z,5.77
2023-05-23T04:31:31.975Z,7.30
2023-05-23T04:33:58.632Z,7.47
2023-05-23T04:36:25.864Z,6.73
2023-05-23T04:38:54.549Z,6.57
2023-05-23T04:41:25.630Z,6.60
2023-05-23T04:44:11.355Z,7.33
2023-05-23T04:46:43.515Z,8.23
2023-05-23T04:49:18.100Z,7.80
2023-05-23T04:51:44.730Z,7.00
2023-05-23T04:54:26.797Z,6.50
2023-05-23T04:56:55.041Z,7.70
2023-05-23T04:59:23.570Z,6.40
2023-05-23T05:01:50.874Z,6.97
2023-05-23T05:04:18.858Z,6.43
2023-05-23T05:06:45.938Z,6.50
2023-05-23T05:09:15.703Z,6.40
2023-05-23T05:11:44.004Z,6.30
2023-05-23T05:14:10.654Z,6.60
2023-05-23T05:16:38.107Z,6.80
2023-05-23T05:19:05.199Z,6.97
2023-05-23T05:21:32.009Z,6.40
2023-05-23T05:24:00.064Z,6.43
2023-05-23T05:26:28.121Z,6.73
2023-05-23T05:28:55.133Z,6.63
2023-05-23T05:31:22.313Z,6.40
2023-05-23T05:33:50.017Z,6.43
2023-05-23T05:36:16.834Z,6.33
2023-05-23T05:38:45.016Z,6.60
2023-05-23T05:41:12.366Z,6.77
2023-05-23T05:43:44.108Z,6.33
2023-05-23T05:46:11.287Z,6.60
2023-05-23T05:48:38.131Z,7.10
2023-05-23T05:51:07.987Z,7.10
2023-05-23T05:53:34.863Z,6.70
2023-05-23T05:56:02.810Z,6.77
2023-05-23T05:58:30.857Z,6.43
2023-05-23T06:01:02.324Z,7.00
2023-05-23T06:03:29.135Z,6.60
2023-05-23T06:05:56.236Z,6.20
2023-05-23T06:08:23.219Z,7.30
2023-05-23T06:10:49.834Z,6.63
2023-05-23T06:13:17.075Z,6.63
2023-05-23T06:15:50.426Z,6.80
2023-05-23T06:18:18.085Z,6.67
2023-05-23T06:20:44.942Z,6.53
2023-05-23T06:23:17.066Z,5.93
2023-05-23T06:25:45.507Z,5.73
2023-05-23T06:28:12.594Z,5.80
2023-05-23T06:30:39.778Z,6.23
2023-05-23T06:33:08.122Z,5.30
2023-05-23T06:35:36.542Z,5.83
2023-05-23T06:38:03.355Z,5.93
2023-05-23T06:40:30.603Z,6.20
2023-05-23T06:42:57.275Z,6.47
2023-05-23T06:45:42.117Z,5.90
2023-05-23T06:48:13.374Z,5.30
2023-05-23T06:50:41.201Z,5.30
2023-05-23T06:53:10.860Z,5.07
2023-05-23T06:55:37.590Z,4.60
2023-05-23T06:58:06.523Z,4.23
2023-05-23T07:00:34.995Z,3.80
2023-05-23T07:03:09.483Z,3.50
2023-05-23T07:05:40.101Z,3.70
2023-05-23T07:08:11.448Z,3.93
2023-05-23T07:10:41.961Z,3.90
2023-05-23T07:13:22.873Z,4.00
2023-05-23T07:15:49.789Z,3.97
2023-05-23T07:18:16.776Z,3.57
2023-05-23T07:20:43.602Z,3.07
2023-05-23T07:23:16.596Z,3.60
2023-05-23T07:25:57.900Z,3.37
2023-05-23T07:28:31.459Z,2.90
2023-05-23T07:30:59.062Z,3.13
2023-05-23T07:33:26.014Z,2.97
2023-05-23T07:35:57.888Z,2.93
2023-05-23T07:38:26.424Z,3.03
2023-05-23T07:41:06.747Z,3.43
2023-05-23T07:43:37.679Z,2.90
2023-05-23T07:46:04.528Z,2.83
2023-05-23T07:48:32.312Z,2.87
2023-05-23T07:51:00.542Z,2.73
2023-05-23T07:53:27.682Z,2.43
2023-05-23T07:55:58.220Z,2.73
2023-05-23T07:58:28.093Z,2.60
2023-05-23T08:00:54.975Z,3.00
2023-05-23T08:03:41.890Z,2.93
2023-05-23T08:06:14.648Z,2.77
2023-05-23T08:08:42.067Z,2.70
2023-05-23T08:11:10.070Z,2.57
2023-05-23T08:13:42.670Z,3.10
2023-05-23T08:16:38.172Z,2.77
2023-05-23T08:19:13.952Z,2.60
2023-05-23T08:21:40.757Z,2.57
2023-05-23T08:24:07.419Z,2.60
2023-05-23T08:26:36.601Z,2.40
2023-05-23T08:29:05.655Z,2.53
2023-05-23T08:31:35.100Z,2.63
2023-05-23T08:34:04.439Z,3.07
2023-05-23T08:36:34.300Z,2.57
2023-05-23T08:39:01.389Z,2.67
2023-05-23T08:41:30.936Z,2.30
2023-05-23T08:44:10.440Z,2.47
2023-05-23T08:46:46.456Z,2.60
2023-05-23T08:49:22.108Z,2.63
2023-05-23T08:51:48.850Z,2.40
2023-05-23T08:54:22.242Z,2.40
2023-05-23T08:56:49.029Z,2.47
2023-05-23T08:59:16.195Z,2.53
2023-05-23T09:01:43.543Z,2.70
2023-05-23T09:04:12.515Z,2.30
2023-05-23T09:06:55.648Z,2.53
2023-05-23T09:09:22.802Z,2.70
2023-05-23T09:11:50.786Z,2.60
2023-05-23T09:14:18.274Z,2.37
2023-05-23T09:16:51.842Z,2.40
2023-05-23T09:19:22.487Z,2.80
2023-05-23T09:21:56.022Z,2.70
2023-05-23T09:24:36.900Z,2.57
2023-05-23T09:27:07.423Z,2.50
2023-05-23T09:29:43.730Z,2.70
2023-05-23T09:32:14.918Z,2.80
2023-05-23T09:35:04.844Z,2.70
2023-05-23T09:37:32.904Z,2.57
2023-05-23T09:40:00.764Z,2.60
2023-05-23T09:42:36.892Z,2.80
2023-05-23T09:45:05.002Z,2.60
2023-05-23T09:47:31.950Z,2.70
2023-05-23T09:49:58.767Z,2.63
2023-05-23T09:52:26.352Z,2.40
2023-05-23T09:54:54.377Z,3.00
2023-05-23T09:57:22.233Z,2.70
2023-05-23T09:59:53.374Z,2.40
2023-05-23T10:02:25.217Z,2.80
2023-05-23T10:04:51.987Z,2.83
2023-05-23T10:07:19.040Z,2.67
2023-05-23T10:09:53.306Z,2.40
2023-05-23T10:12:50.328Z,2.33
2023-05-23T10:15:17.599Z,2.50
2023-05-23T10:18:03.207Z,2.20
2023-05-23T10:20:34.231Z,2.43
2023-05-23T10:23:01.605Z,2.80
2023-05-23T10:25:28.975Z,2.70
2023-05-23T10:28:01.566Z,2.67
2023-05-23T10:30:30.093Z,2.57
2023-05-23T10:32:56.933Z,2.60
2023-05-23T10:35:34.286Z,2.60
2023-05-23T10:38:04.251Z,2.43
2023-05-23T10:40:30.915Z,2.40
2023-05-23T10:43:03.588Z,2.30
2023-05-23T10:45:31.241Z,2.50
2023-05-23T10:47:59.387Z,2.50
2023-05-23T10:50:33.648Z,2.33
2023-05-23T10:53:04.107Z,2.40
2023-05-23T10:55:34.669Z,2.23
2023-05-23T10:58:17.399Z,2.60
2023-05-23T11:01:04.186Z,2.30
2023-05-23T11:03:33.923Z,2.30
2023-05-23T11:06:01.256Z,2.63
2023-05-23T11:08:43.285Z,2.40
2023-05-23T11:11:15.044Z,2.20
2023-05-23T11:13:53.808Z,2.30
2023-05-23T11:16:24.789Z,2.30
2023-05-23T11:18:51.453Z,2.00
2023-05-23T11:21:18.260Z,2.80
2023-05-23T11:23:44.918Z,2.67
2023-05-23T11:26:29.066Z,2.43
2023-05-23T11:28:55.949Z,2.40
2023-05-23T11:31:24.418Z,2.40
2023-05-23T11:33:53.603Z,2.10
2023-05-23T11:36:23.417Z,2.23
2023-05-23T11:38:51.018Z,2.47
2023-05-23T11:41:17.709Z,2.50
2023-05-23T11:43:52.775Z,2.27
2023-05-23T11:46:20.415Z,2.10
2023-05-23T11:48:47.373Z,2.33
2023-05-23T11:51:14.549Z,2.50
2023-05-23T11:53:41.547Z,2.40
2023-05-23T11:56:08.437Z,2.20
2023-05-23T11:58:36.728Z,2.57
2023-05-23T12:01:08.134Z,2.43
2023-05-23T12:03:35.352Z,2.40
2023-05-23T12:06:02.537Z,2.50
2023-05-23T12:08:30.155Z,2.40
2023-05-23T12:11:00.291Z,2.43
2023-05-23T12:13:28.430Z,2.50
2023-05-23T12:15:59.569Z,2.40
2023-05-23T12:18:30.064Z,2.40
2023-05-23T12:21:00.732Z,2.43
2023-05-23T12:23:28.435Z,2.30
2023-05-23T12:25:55.733Z,2.27
2023-05-23T12:28:22.938Z,2.30
2023-05-23T12:30:49.749Z,2.63
2023-05-23T12:33:18.241Z,2.60
2023-05-23T12:35:45.390Z,2.30
2023-05-23T12:38:14.879Z,2.30
2023-05-23T12:40:41.614Z,2.50
2023-05-23T12:43:10.021Z,2.23
2023-05-23T12:45:37.089Z,2.30
2023-05-23T12:48:05.020Z,2.27
2023-05-23T12:50:31.822Z,4.40
2023-05-23T12:52:58.613Z,3.50
2023-05-23T12:55:25.492Z,3.53
2023-05-23T12:57:52.263Z,3.90
2023-05-23T13:00:19.736Z,4.50
2023-05-23T13:02:46.759Z,4.13
2023-05-23T13:05:13.527Z,2.77
2023-05-23T13:07:46.256Z,3.00
2023-05-23T13:10:14.043Z,2.57
2023-05-23T13:12:47.578Z,2.57
2023-05-23T13:15:14.511Z,2.53
2023-05-23T13:17:41.305Z,2.03
2023-05-23T13:20:11.014Z,2.23
2023-05-23T13:22:38.482Z,2.10
2023-05-23T13:25:07.550Z,2.77
2023-05-23T13:27:34.503Z,2.80
2023-05-23T13:30:05.059Z,2.67
2023-05-23T13:32:32.013Z,2.83
2023-05-23T13:34:58.898Z,2.53
2023-05-23T13:37:27.034Z,2.20
2023-05-23T13:39:53.867Z,2.30
2023-05-23T13:42:20.582Z,2.37
2023-05-23T13:44:47.248Z,2.20
2023-05-23T13:47:14.361Z,2.40
2023-05-23T13:49:41.873Z,2.40
2023-05-23T13:52:10.851Z,2.60
2023-05-23T13:54:37.707Z,2.27
2023-05-23T13:57:04.801Z,2.40
2023-05-23T13:59:32.307Z,2.40
2023-05-23T14:01:59.252Z,2.73
2023-05-23T14:04:26.045Z,2.50
2023-05-23T14:06:53.273Z,2.77
2023-05-23T14:09:21.565Z,2.50
2023-05-23T14:11:52.256Z,2.33
2023-05-23T14:14:19.364Z,2.30
2023-05-23T14:16:47.153Z,2.80
2023-05-23T14:19:14.155Z,2.30
2023-05-23T14:24:32.550Z,2.50
2023-05-23T14:26:59.441Z,2.60
2023-05-23T14:29:26.395Z,2.50
2023-05-23T14:31:53.207Z,2.47
2023-05-23T14:34:20.125Z,2.47
2023-05-23T14:36:46.826Z,2.33
2023-05-23T14:39:13.576Z,2.80
2023-05-23T14:41:41.509Z,2.33
2023-05-23T14:44:08.594Z,2.33
2023-05-23T14:46:35.406Z,2.30
2023-05-23T14:49:02.169Z,2.47
2023-05-23T14:51:44.645Z,2.70
2023-05-23T14:54:16.056Z,2.77
2023-05-23T14:56:43.459Z,2.60
2023-05-23T14:59:10.286Z,2.63
2023-05-23T15:01:39.881Z,2.50
2023-05-23T15:04:55.136Z,2.53
2023-05-23T15:07:22.060Z,2.67
2023-05-23T15:09:49.536Z,2.40
2023-05-23T15:12:20.898Z,2.50
2023-05-23T15:14:51.204Z,2.67
2023-05-23T15:17:24.981Z,2.50
2023-05-23T15:19:56.992Z,3.10
2023-05-23T15:22:37.771Z,3.53
2023-05-23T15:25:07.302Z,2.57
2023-05-23T15:27:33.967Z,3.27
2023-05-23T15:30:00.666Z,3.40
2023-05-23T15:32:27.424Z,3.27
2023-05-23T15:34:54.335Z,3.00
2023-05-23T15:37:21.257Z,3.27
2023-05-23T15:39:48.951Z,3.30
2023-05-23T15:42:15.970Z,3.73
2023-05-23T15:44:46.374Z,3.43
2023-05-23T15:47:13.158Z,3.73
2023-05-23T15:49:42.991Z,3.30
2023-05-23T15:52:09.624Z,3.30
2023-05-23T15:54:36.248Z,3.43
2023-05-23T15:57:02.942Z,3.77
2023-05-23T15:59:31.527Z,3.87
2023-05-23T16:01:58.296Z,3.30
2023-05-23T16:04:25.082Z,3.30
2023-05-23T16:06:51.771Z,3.37
2023-05-23T16:09:18.620Z,3.20
2023-05-23T16:11:46.924Z,3.20
2023-05-23T16:14:13.768Z,3.00
2023-05-23T16:16:40.577Z,3.37
2023-05-23T16:19:07.477Z,3.27
2023-05-23T16:21:34.778Z,3.10
2023-05-23T16:24:01.450Z,3.30
2023-05-23T16:26:29.219Z,2.97
2023-05-23T16:28:56.316Z,3.50
2023-05-23T16:31:27.228Z,7.60
2023-05-23T16:33:54.924Z,15.43
2023-05-23T16:36:22.129Z,7.67
2023-05-23T16:38:48.862Z,3.53
2023-05-23T16:41:16.399Z,3.03
2023-05-23T16:43:43.836Z,3.37
2023-05-23T16:46:10.751Z,3.37
2023-05-23T16:48:39.182Z,3.43
2023-05-23T16:51:05.961Z,3.23
2023-05-23T16:53:33.359Z,2.77
2023-05-23T16:56:00.837Z,3.20
2023-05-23T16:58:27.630Z,3.30
2023-05-23T17:00:54.717Z,3.13
2023-05-23T17:03:21.515Z,3.33
2023-05-23T17:05:48.173Z,3.53
2023-05-23T17:08:14.859Z,3.40
2023-05-23T17:10:41.665Z,4.70
2023-05-23T17:13:09.397Z,4.90
2023-05-23T17:15:36.666Z,3.63
2023-05-23T17:18:03.706Z,4.50
2023-05-23T17:20:30.479Z,6.10
2023-05-23T17:22:57.160Z,6.37
2023-05-23T17:25:24.178Z,6.97
2023-05-23T17:27:51.071Z,6.80
2023-05-23T17:30:20.924Z,5.03
2023-05-23T17:32:47.730Z,3.60
2023-05-23T17:35:14.393Z,3.27
2023-05-23T17:37:45.155Z,3.20
2023-05-23T17:40:12.618Z,3.10
2023-05-23T17:42:40.144Z,3.23
2023-05-23T17:45:09.773Z,6.00
2023-05-23T17:47:40.880Z,8.17
2023-05-23T17:50:08.612Z,10.97
2023-05-23T17:52:36.025Z,6.23
2023-05-23T17:55:02.837Z,3.30
2023-05-23T17:57:33.428Z,4.50
2023-05-23T18:00:00.525Z,3.70
2023-05-23T18:02:27.824Z,3.50
2023-05-23T18:04:55.557Z,3.73
2023-05-23T18:07:22.795Z,7.43
2023-05-23T18:09:49.700Z,8.83
2023-05-23T18:12:16.867Z,15.07
2023-05-23T18:14:44.117Z,13.03
2023-05-23T18:17:10.938Z,10.23
2023-05-23T18:19:37.912Z,10.77
2023-05-23T18:22:04.820Z,6.13
2023-05-23T18:24:31.622Z,3.93
2023-05-23T18:26:58.416Z,3.27
2023-05-23T18:29:25.374Z,3.27
2023-05-23T18:31:53.320Z,3.30
2023-05-23T18:34:20.850Z,3.30
2023-05-23T18:36:47.763Z,3.27
2023-05-23T18:39:18.905Z,3.30
2023-05-23T18:41:46.398Z,3.47
2023-05-23T18:44:13.684Z,3.60
2023-05-23T18:46:44.673Z,3.60
2023-05-23T18:49:11.622Z,3.30
2023-05-23T18:51:38.456Z,4.17
2023-05-23T18:54:05.507Z,4.20
2023-05-23T18:56:32.198Z,4.30
2023-05-23T18:58:59.643Z,4.70
2023-05-23T19:01:26.410Z,6.97
2023-05-23T19:03:53.413Z,5.17
2023-05-23T19:06:20.567Z,5.70
2023-05-23T19:08:47.532Z,4.37
2023-05-23T19:11:14.834Z,4.23
2023-05-23T19:13:41.713Z,4.17
2023-05-23T19:16:08.788Z,4.37
2023-05-23T19:18:35.964Z,4.73
2023-05-23T19:21:03.349Z,4.00
2023-05-23T19:23:32.546Z,4.30
2023-05-23T19:25:59.218Z,4.73
2023-05-23T19:28:25.913Z,3.87
2023-05-23T19:30:53.868Z,4.53
2023-05-23T19:33:20.854Z,4.70
2023-05-23T19:35:49.378Z,4.50
2023-05-23T19:38:16.393Z,3.90
2023-05-23T19:40:43.295Z,3.80
2023-05-23T19:43:11.197Z,3.77
2023-05-23T19:45:38.132Z,3.77
2023-05-23T19:48:06.470Z,4.00
2023-05-23T19:50:37.087Z,3.80
2023-05-23T19:53:06.913Z,3.70
2023-05-23T19:55:33.560Z,4.03
2023-05-23T19:58:01.502Z,3.60
2023-05-23T20:00:28.349Z,3.90
2023-05-23T20:02:56.946Z,3.80
2023-05-23T20:05:24.941Z,4.10
2023-05-23T20:07:53.823Z,3.90
2023-05-23T20:10:21.224Z,4.80
2023-05-23T20:12:53.047Z,4.30
2023-05-23T20:15:35.425Z,5.07
2023-05-23T20:18:06.624Z,6.97
2023-05-23T20:20:34.536Z,5.50
2023-05-23T20:23:01.533Z,5.90
2023-05-23T20:25:28.684Z,7.13
2023-05-23T20:27:59.102Z,6.60
2023-05-23T20:30:28.308Z,5.67
2023-05-23T20:32:55.262Z,6.03
2023-05-23T20:35:22.440Z,5.43
2023-05-23T20:37:51.328Z,5.53
2023-05-23T20:40:18.613Z,5.00
2023-05-23T20:42:46.562Z,4.77
2023-05-23T20:45:15.494Z,4.83
2023-05-23T20:47:42.778Z,4.90
2023-05-23T20:50:13.021Z,5.20
2023-05-23T20:52:41.488Z,4.97
2023-05-23T20:55:08.932Z,5.00
2023-05-23T20:57:39.882Z,5.07
2023-05-23T21:00:13.901Z,5.27
2023-05-23T21:02:42.468Z,5.17
2023-05-23T21:05:09.733Z,5.60
2023-05-23T21:07:36.521Z,5.50
2023-05-23T21:10:04.837Z,6.00
2023-05-23T21:12:31.542Z,5.83
2023-05-23T21:14:58.626Z,6.27
2023-05-23T21:17:25.691Z,6.63
2023-05-23T21:19:52.470Z,7.17
2023-05-23T21:22:19.873Z,6.57
2023-05-23T21:24:46.819Z,6.10
2023-05-23T21:27:13.525Z,6.50
2023-05-23T21:29:40.670Z,6.10
2023-05-23T21:32:07.909Z,6.33
2023-05-23T21:34:34.774Z,6.27
2023-05-23T21:37:01.624Z,5.87
2023-05-23T21:39:43.092Z,5.77
2023-05-23T21:42:16.548Z,5.97
2023-05-23T21:44:44.526Z,5.30
2023-05-23T21:47:12.402Z,4.80
2023-05-23T21:49:40.464Z,4.27
2023-05-23T21:52:08.073Z,4.83
2023-05-23T21:54:35.359Z,4.83
2023-05-23T21:57:02.134Z,4.33
2023-05-23T21:59:28.875Z,4.80
2023-05-23T22:01:55.685Z,4.80
2023-05-23T22:04:22.286Z,4.63
2023-05-23T22:06:48.977Z,5.13
2023-05-23T22:09:15.632Z,4.90
2023-05-23T22:11:42.410Z,4.80
2023-05-23T22:14:09.262Z,5.00
2023-05-23T22:16:41.952Z,5.13
2023-05-23T22:19:10.580Z,4.93
2023-05-23T22:21:37.574Z,4.43
2023-05-23T22:24:04.379Z,4.87
2023-05-23T22:26:31.058Z,5.00
2023-05-23T22:28:57.677Z,5.03
2023-05-23T22:31:24.458Z,4.67
2023-05-23T22:33:51.518Z,4.77
2023-05-23T22:36:22.065Z,4.53
2023-05-23T22:38:48.760Z,4.97
2023-05-23T22:41:15.531Z,4.60
2023-05-23T22:43:42.211Z,4.60
2023-05-23T22:46:08.977Z,4.40
2023-05-23T22:48:35.631Z,4.80
2023-05-23T22:51:02.522Z,4.80
2023-05-23T22:53:29.889Z,4.83
2023-05-23T22:55:56.600Z,6.10
2023-05-23T22:58:23.285Z,6.17
2023-05-23T23:00:49.925Z,6.03
2023-05-23T23:03:16.645Z,6.13
2023-05-23T23:05:44.364Z,6.20
2023-05-23T23:08:11.037Z,6.17
2023-05-23T23:10:37.691Z,5.43
2023-05-23T23:13:04.299Z,5.33
2023-05-23T23:15:33.981Z,6.30
2023-05-23T23:18:01.372Z,5.80
2023-05-23T23:20:28.373Z,8.80
2023-05-23T23:22:55.202Z,6.07
2023-05-23T23:25:22.254Z,5.83
2023-05-23T23:27:49.854Z,5.67
2023-05-23T23:30:16.706Z,5.70
2023-05-23T23:32:44.166Z,6.07
2023-05-23T23:35:10.800Z,5.67
2023-05-23T23:37:38.055Z,5.77
2023-05-23T23:40:05.303Z,5.80
2023-05-23T23:42:32.236Z,6.20
2023-05-23T23:44:58.886Z,6.10
2023-05-23T23:47:26.471Z,6.10
2023-05-23T23:49:53.033Z,5.90
2023-05-23T23:52:19.644Z,6.00
2023-05-23T23:54:46.399Z,6.03
2023-05-23T23:57:14.195Z,6.03
2023-05-23T23:59:43.908Z,6.07
